createdAt,value
2018-08-25T00:00:52.690Z,74.10
2018-08-25T00:03:28.368Z,76.54
2018-08-25T00:06:03.971Z,77.55
2018-08-25T00:08:39.581Z,78.62
2018-08-25T00:11:15.292Z,78.70
2018-08-25T00:13:50.975Z,77.35
2018-08-25T00:16:26.951Z,75.62
2018-08-25T00:19:03.345Z,76.84
2018-08-25T00:21:39.081Z,77.56
2018-08-25T00:24:15.749Z,77.71
2018-08-25T00:26:55.880Z,77.07
2018-08-25T00:29:31.964Z,76.98
2018-08-25T00:32:07.820Z,76.43
2018-08-25T00:34:44.414Z,76.84
2018-08-25T00:37:20.558Z,76.92
2018-08-25T00:39:56.567Z,78.54
2018-08-25T00:42:32.443Z,77.92
2018-08-25T00:45:08.214Z,78.47
2018-08-25T00:47:44.712Z,77.24
2018-08-25T00:50:20.874Z,77.18
2018-08-25T00:52:56.673Z,77.05
2018-08-25T00:55:32.737Z,76.91
2018-08-25T00:58:08.670Z,77.67
2018-08-25T01:00:45.039Z,76.72
2018-08-25T01:03:21.078Z,76.19
2018-08-25T01:05:57.052Z,75.84
2018-08-25T01:08:32.932Z,76.53
2018-08-25T01:11:08.649Z,74.85
2018-08-25T01:13:44.941Z,74.97
2018-08-25T01:16:20.659Z,74.45
2018-08-25T01:18:56.514Z,74.07
2018-08-25T01:21:32.292Z,73.25
2018-08-25T01:24:08.105Z,73.70
2018-08-25T01:26:43.881Z,73.90
2018-08-25T01:29:19.672Z,73.46
2018-08-25T01:31:55.459Z,73.41
2018-08-25T01:34:31.894Z,74.21
2018-08-25T01:37:07.637Z,74.01
2018-08-25T01:39:43.570Z,73.71
2018-08-25T01:42:19.389Z,73.43
2018-08-25T01:44:55.870Z,73.51
2018-08-25T01:47:31.616Z,74.51
2018-08-25T01:50:07.698Z,75.25
2018-08-25T01:52:43.477Z,76.64
2018-08-25T01:55:19.270Z,77.05
2018-08-25T01:57:54.903Z,78.22
2018-08-25T02:00:30.682Z,78.37
2018-08-25T02:03:06.635Z,81.02
2018-08-25T02:05:42.467Z,81.98
2018-08-25T02:08:18.235Z,83.04
2018-08-25T02:10:54.107Z,83.12
2018-08-25T02:13:29.903Z,81.60
2018-08-25T02:16:06.488Z,80.72
2018-08-25T02:18:42.357Z,80.66
2018-08-25T02:21:18.333Z,79.74
2018-08-25T02:23:54.173Z,79.56
2018-08-25T02:26:32.552Z,78.24
2018-08-25T02:29:08.598Z,77.65
2018-08-25T02:31:44.477Z,78.37
2018-08-25T02:34:20.352Z,78.17
2018-08-25T02:36:58.434Z,77.63
2018-08-25T02:39:34.430Z,77.79
2018-08-25T02:42:10.329Z,78.35
2018-08-25T02:44:46.148Z,77.28
2018-08-25T02:47:23.770Z,76.37
2018-08-25T02:49:59.701Z,75.32
2018-08-25T02:52:35.565Z,74.55
2018-08-25T02:55:11.434Z,74.71
2018-08-25T02:57:51.086Z,75.18
2018-08-25T03:00:26.717Z,76.35
2018-08-25T03:03:03.658Z,76.52
2018-08-25T03:05:39.408Z,77.00
2018-08-25T03:08:15.329Z,78.82
2018-08-25T03:10:51.039Z,78.70
2018-08-25T03:13:26.706Z,79.05
2018-08-25T03:16:02.552Z,79.26
2018-08-25T03:18:38.426Z,80.16
2018-08-25T03:21:14.249Z,81.45
2018-08-25T03:23:50.208Z,81.86
2018-08-25T03:26:25.938Z,82.13
2018-08-25T03:29:01.713Z,81.09
2018-08-25T03:31:37.622Z,81.97
2018-08-25T03:34:13.383Z,83.16
2018-08-25T03:36:49.128Z,82.88
2018-08-25T03:39:24.949Z,82.81
2018-08-25T03:42:00.687Z,82.50
2018-08-25T03:44:36.461Z,81.62
2018-08-25T03:47:12.404Z,80.35
2018-08-25T03:49:48.399Z,80.45
2018-08-25T03:52:24.140Z,79.94
2018-08-25T03:55:00.042Z,78.91
2018-08-25T03:57:35.901Z,78.63
2018-08-25T04:00:11.708Z,79.90
2018-08-25T04:02:47.458Z,82.29
2018-08-25T04:05:23.354Z,82.53
2018-08-25T04:07:59.169Z,83.56
2018-08-25T04:10:35.119Z,84.00
2018-08-25T04:13:10.823Z,83.20
2018-08-25T04:15:46.491Z,82.13
2018-08-25T04:18:22.243Z,81.47
2018-08-25T04:20:58.032Z,80.58
2018-08-25T04:23:33.923Z,79.51
2018-08-25T04:26:09.875Z,80.21
2018-08-25T04:28:45.772Z,81.39
2018-08-25T04:31:21.401Z,83.26
2018-08-25T04:33:57.174Z,83.20
2018-08-25T04:36:33.092Z,82.13
2018-08-25T04:39:10.686Z,79.97
2018-08-25T04:41:46.483Z,78.42
2018-08-25T04:44:22.199Z,79.56
2018-08-25T04:46:58.026Z,79.74
2018-08-25T04:49:33.765Z,78.83
2018-08-25T04:52:09.789Z,78.63
2018-08-25T04:54:45.393Z,78.29
2018-08-25T04:57:21.513Z,77.82
2018-08-25T04:59:57.296Z,77.81
2018-08-25T05:02:33.143Z,77.63
2018-08-25T05:05:09.007Z,78.51
2018-08-25T05:07:44.908Z,78.16
2018-08-25T05:10:20.845Z,77.02
2018-08-25T05:12:56.732Z,76.08
2018-08-25T05:15:32.562Z,73.79
2018-08-25T05:18:08.458Z,71.86
2018-08-25T05:20:44.185Z,70.06
2018-08-25T05:23:20.071Z,70.13
2018-08-25T05:25:55.847Z,69.24
2018-08-25T05:28:31.772Z,68.75
2018-08-25T05:31:07.616Z,69.38
2018-08-25T05:33:43.419Z,69.33
2018-08-25T05:36:19.185Z,69.05
2018-08-25T05:38:55.465Z,68.13
2018-08-25T05:41:31.331Z,67.55
2018-08-25T05:44:07.222Z,66.31
2018-08-25T05:46:44.186Z,67.57
2018-08-25T05:49:21.264Z,67.58
2018-08-25T05:51:57.263Z,65.87
2018-08-25T05:54:32.995Z,64.66
2018-08-25T05:57:10.448Z,63.32
2018-08-25T05:59:46.524Z,62.52
2018-08-25T06:02:22.279Z,60.90
2018-08-25T06:04:58.542Z,60.75
2018-08-25T06:07:34.379Z,60.29
2018-08-25T06:10:10.620Z,60.86
2018-08-25T06:12:46.494Z,58.50
2018-08-25T06:15:22.330Z,57.35
2018-08-25T06:17:58.184Z,56.82
2018-08-25T06:20:33.938Z,56.52
2018-08-25T06:23:09.797Z,56.11
2018-08-25T06:25:45.925Z,57.07
2018-08-25T06:28:21.774Z,56.58
2018-08-25T06:30:58.161Z,56.07
2018-08-25T06:33:34.299Z,56.36
2018-08-25T06:36:13.708Z,53.37
2018-08-25T06:38:49.460Z,49.48
2018-08-25T06:41:20.291Z,48.40
2018-08-25T06:43:51.038Z,48.76
2018-08-25T06:46:21.903Z,48.79
2018-08-25T06:48:52.942Z,48.63
2018-08-25T06:51:24.041Z,47.06
2018-08-25T06:53:54.822Z,47.20
2018-08-25T06:56:25.634Z,44.59
2018-08-25T06:58:59.184Z,45.07
2018-08-25T07:01:30.152Z,45.41
2018-08-25T07:04:00.990Z,44.98
2018-08-25T07:06:34.312Z,44.02
2018-08-25T07:09:09.400Z,45.48
2018-08-25T07:11:40.469Z,43.48
2018-08-25T07:14:11.665Z,43.06
2018-08-25T07:16:42.553Z,42.82
2018-08-25T07:19:13.377Z,42.97
2018-08-25T07:21:44.191Z,42.62
2018-08-25T07:24:19.836Z,41.65
2018-08-25T07:26:50.662Z,42.14
2018-08-25T07:29:21.447Z,41.71
2018-08-25T07:31:52.347Z,41.66
2018-08-25T07:34:23.894Z,42.15
2018-08-25T07:36:54.910Z,42.04
2018-08-25T07:39:25.966Z,42.24
2018-08-25T07:41:56.823Z,41.16
2018-08-25T07:44:27.628Z,42.24
2018-08-25T07:46:58.491Z,40.56
2018-08-25T07:49:29.283Z,39.84
2018-08-25T07:52:00.302Z,39.70
2018-08-25T07:54:31.064Z,39.85
2018-08-25T07:57:02.688Z,41.76
2018-08-25T07:59:33.512Z,41.97
2018-08-25T08:02:04.917Z,41.47
2018-08-25T08:04:35.691Z,41.57
2018-08-25T08:07:06.567Z,41.11
2018-08-25T08:09:37.367Z,41.75
2018-08-25T08:12:08.267Z,41.25
2018-08-25T08:14:39.316Z,42.05
2018-08-25T08:17:10.294Z,40.31
2018-08-25T08:19:41.193Z,39.67
2018-08-25T08:22:12.021Z,39.04
2018-08-25T08:24:42.771Z,39.80
2018-08-25T08:27:13.600Z,40.18
2018-08-25T08:29:44.369Z,40.74
2018-08-25T08:32:15.209Z,40.12
2018-08-25T08:34:45.977Z,39.61
2018-08-25T08:37:16.782Z,39.92
2018-08-25T08:39:47.553Z,39.56
2018-08-25T08:42:18.390Z,38.76
2018-08-25T08:44:50.090Z,38.05
2018-08-25T08:47:21.906Z,38.00
2018-08-25T08:49:53.064Z,38.26
2018-08-25T08:52:24.537Z,39.81
2018-08-25T08:54:55.385Z,39.08
2018-08-25T08:57:26.279Z,39.02
2018-08-25T08:59:57.151Z,39.17
2018-08-25T09:02:28.134Z,38.49
2018-08-25T09:04:59.035Z,38.84
2018-08-25T09:07:30.218Z,37.69
2018-08-25T09:10:01.198Z,39.35
2018-08-25T09:12:31.986Z,37.37
2018-08-25T09:15:02.809Z,37.37
2018-08-25T09:17:33.798Z,36.41
2018-08-25T09:20:04.962Z,35.39
2018-08-25T09:22:35.780Z,37.04
2018-08-25T09:25:07.093Z,37.19
2018-08-25T09:27:38.068Z,37.61
2018-08-25T09:30:09.407Z,37.55
2018-08-25T09:32:40.458Z,37.31
2018-08-25T09:35:11.403Z,38.10
2018-08-25T09:37:42.428Z,39.29
2018-08-25T09:40:13.289Z,39.66
2018-08-25T09:42:44.150Z,38.36
2018-08-25T09:45:15.185Z,37.93
2018-08-25T09:47:51.795Z,38.12
2018-08-25T09:50:22.981Z,38.48
2018-08-25T09:52:53.848Z,38.32
2018-08-25T09:55:24.617Z,38.00
2018-08-25T09:57:55.419Z,38.17
2018-08-25T10:00:26.281Z,37.96
2018-08-25T10:02:57.292Z,38.08
2018-08-25T10:05:28.065Z,37.88
2018-08-25T10:07:58.873Z,36.73
2018-08-25T10:10:29.636Z,36.97
2018-08-25T10:13:00.446Z,36.42
2018-08-25T10:15:31.198Z,35.78
2018-08-25T10:18:02.069Z,36.05
2018-08-25T10:20:32.842Z,36.40
2018-08-25T10:23:03.748Z,35.86
2018-08-25T10:25:35.171Z,36.49
2018-08-25T10:28:06.100Z,36.73
2018-08-25T10:30:36.969Z,36.93
2018-08-25T10:33:07.868Z,36.39
2018-08-25T10:35:38.755Z,36.86
2018-08-25T10:38:09.810Z,37.49
2018-08-25T10:40:40.702Z,37.63
2018-08-25T10:43:11.559Z,36.65
2018-08-25T10:45:42.384Z,37.74
2018-08-25T10:48:14.388Z,37.76
2018-08-25T10:50:45.319Z,37.54
2018-08-25T10:53:16.358Z,41.96
2018-08-25T10:55:47.173Z,43.52
2018-08-25T10:58:18.070Z,44.29
2018-08-25T11:00:49.703Z,43.65
2018-08-25T11:03:20.952Z,44.99
2018-08-25T11:05:51.748Z,36.85
2018-08-25T11:08:22.963Z,40.65
2018-08-25T11:10:53.772Z,41.27
2018-08-25T11:13:24.630Z,40.17
2018-08-25T11:15:55.405Z,40.92
2018-08-25T11:18:26.261Z,39.95
2018-08-25T11:20:57.051Z,39.88
2018-08-25T11:23:28.060Z,38.62
2018-08-25T11:26:00.098Z,40.27
2018-08-25T11:28:31.757Z,40.18
2018-08-25T11:31:03.848Z,40.58
2018-08-25T11:33:34.859Z,40.00
2018-08-25T11:36:05.639Z,40.37
2018-08-25T11:38:36.465Z,40.01
2018-08-25T11:41:07.307Z,39.01
2018-08-25T11:43:38.168Z,40.43
2018-08-25T11:46:08.982Z,42.90
2018-08-25T11:48:45.536Z,42.61
2018-08-25T11:51:16.307Z,42.61
2018-08-25T11:53:47.135Z,41.59
2018-08-25T11:56:17.961Z,42.19
2018-08-25T11:58:48.808Z,44.48
2018-08-25T12:01:19.701Z,45.41
2018-08-25T12:03:50.957Z,44.95
2018-08-25T12:06:21.851Z,44.67
2018-08-25T12:08:52.737Z,42.65
2018-08-25T12:11:23.549Z,45.23
2018-08-25T12:13:54.415Z,46.18
2018-08-25T12:16:25.214Z,44.15
2018-08-25T12:18:56.243Z,43.69
2018-08-25T12:21:27.121Z,45.42
2018-08-25T12:23:58.057Z,44.36
2018-08-25T12:26:29.105Z,43.43
2018-08-25T12:28:59.970Z,43.16
2018-08-25T12:31:30.752Z,44.34
2018-08-25T12:34:01.685Z,42.63
2018-08-25T12:36:32.488Z,42.40
2018-08-25T12:39:03.565Z,41.83
2018-08-25T12:41:34.304Z,41.71
2018-08-25T12:44:05.169Z,43.49
2018-08-25T12:46:35.998Z,44.95
2018-08-25T12:49:06.913Z,45.15
2018-08-25T12:51:37.877Z,45.38
2018-08-25T12:54:08.891Z,44.58
2018-08-25T12:56:39.697Z,44.75
2018-08-25T12:59:10.567Z,44.07
2018-08-25T13:01:41.577Z,43.26
2018-08-25T13:04:12.784Z,40.77
2018-08-25T13:06:43.554Z,40.30
2018-08-25T13:09:14.471Z,40.50
2018-08-25T13:11:45.291Z,41.42
2018-08-25T13:14:16.125Z,39.49
2018-08-25T13:16:46.919Z,39.28
2018-08-25T13:19:18.008Z,40.39
2018-08-25T13:21:48.878Z,42.75
2018-08-25T13:24:19.928Z,43.78
2018-08-25T13:26:50.734Z,44.63
2018-08-25T13:29:21.621Z,43.79
2018-08-25T13:31:52.856Z,43.29
2018-08-25T13:34:23.793Z,42.82
2018-08-25T13:36:54.697Z,43.29
2018-08-25T13:39:25.694Z,44.37
2018-08-25T13:41:56.713Z,46.44
2018-08-25T13:44:30.696Z,48.19
2018-08-25T13:47:01.562Z,48.47
2018-08-25T13:49:32.535Z,48.56
2018-08-25T13:52:03.456Z,48.57
2018-08-25T13:54:34.264Z,49.83
2018-08-25T13:57:05.295Z,48.04
2018-08-25T13:59:36.622Z,48.46
2018-08-25T14:02:08.276Z,50.18
2018-08-25T14:04:39.437Z,51.45
2018-08-25T14:07:11.344Z,51.57
2018-08-25T14:09:42.458Z,50.07
2018-08-25T14:12:13.453Z,49.66
2018-08-25T14:14:44.440Z,48.01
2018-08-25T14:17:15.869Z,44.55
2018-08-25T14:19:46.914Z,45.40
2018-08-25T14:22:18.412Z,45.79
2018-08-25T14:26:14.189Z,45.77
2018-08-25T14:28:45.037Z,44.02
2018-08-25T14:31:16.942Z,40.97
2018-08-25T14:33:47.744Z,40.25
2018-08-25T14:36:18.956Z,40.38
2018-08-25T14:38:50.113Z,41.04
2018-08-25T14:41:21.181Z,42.11
2018-08-25T14:43:52.046Z,41.86
2018-08-25T14:46:23.283Z,37.39
2018-08-25T14:48:54.078Z,35.27
2018-08-25T14:51:24.886Z,32.69
2018-08-25T14:53:55.721Z,32.02
2018-08-25T14:56:26.569Z,31.32
2018-08-25T14:58:57.689Z,31.06
2018-08-25T15:01:28.817Z,31.72
2018-08-25T15:03:59.954Z,32.51
2018-08-25T15:06:30.793Z,34.17
2018-08-25T15:09:06.507Z,34.10
2018-08-25T15:11:37.442Z,35.22
2018-08-25T15:14:08.470Z,37.26
2018-08-25T15:16:39.312Z,38.24
2018-08-25T15:19:10.186Z,37.21
2018-08-25T15:21:41.011Z,36.17
2018-08-25T15:24:11.828Z,35.94
2018-08-25T15:26:42.806Z,36.19
2018-08-25T15:29:14.487Z,36.31
2018-08-25T15:31:45.428Z,37.79
2018-08-25T15:34:16.489Z,38.34
2018-08-25T15:36:52.474Z,38.02
2018-08-25T15:39:23.500Z,39.04
2018-08-25T15:41:54.359Z,39.41
2018-08-25T15:44:25.148Z,40.58
2018-08-25T15:46:55.964Z,40.87
2018-08-25T15:49:27.060Z,41.63
2018-08-25T15:51:58.105Z,42.37
2018-08-25T15:54:29.974Z,41.66
2018-08-25T15:57:00.824Z,42.24
2018-08-25T15:59:31.663Z,42.11
2018-08-25T16:02:03.929Z,43.61
2018-08-25T16:04:34.719Z,44.52
2018-08-25T16:07:06.382Z,45.31
2018-08-25T16:09:37.166Z,45.91
2018-08-25T16:12:08.093Z,46.13
2018-08-25T16:14:40.385Z,46.92
2018-08-25T16:17:11.214Z,47.61
2018-08-25T16:19:42.937Z,48.85
2018-08-25T16:22:14.434Z,50.43
2018-08-25T16:24:45.371Z,51.85
2018-08-25T16:27:17.005Z,51.21
2018-08-25T16:29:47.844Z,51.56
2018-08-25T16:32:18.677Z,51.80
2018-08-25T16:34:49.473Z,51.83
2018-08-25T16:37:20.393Z,52.65
2018-08-25T16:39:51.315Z,53.27
2018-08-25T16:42:22.161Z,52.83
2018-08-25T16:44:52.952Z,52.41
2018-08-25T16:47:23.851Z,52.78
2018-08-25T16:49:54.757Z,53.11
2018-08-25T16:52:25.769Z,52.73
2018-08-25T16:54:56.563Z,53.41
2018-08-25T16:57:27.443Z,53.66
2018-08-25T16:59:58.238Z,54.74
2018-08-25T17:02:29.437Z,54.20
2018-08-25T17:05:01.023Z,54.64
2018-08-25T17:07:31.953Z,55.66
2018-08-25T17:10:02.741Z,54.80
2018-08-25T17:12:33.582Z,55.10
2018-08-25T17:15:04.461Z,55.31
2018-08-25T17:17:35.317Z,55.79
2018-08-25T17:20:06.190Z,55.39
2018-08-25T17:22:37.031Z,55.60
2018-08-25T17:25:07.851Z,56.02
2018-08-25T17:27:38.841Z,55.53
2018-08-25T17:30:14.837Z,55.38
2018-08-25T17:32:45.921Z,56.09
2018-08-25T17:35:16.735Z,56.47
2018-08-25T17:37:48.111Z,55.97
2018-08-25T17:40:18.931Z,57.49
2018-08-25T17:42:49.770Z,55.76
2018-08-25T17:45:20.564Z,55.34
2018-08-25T17:47:51.404Z,55.37
2018-08-25T17:50:22.201Z,56.12
2018-08-25T17:52:53.053Z,55.99
2018-08-25T17:55:23.854Z,55.93
2018-08-25T17:57:55.137Z,56.27
2018-08-25T18:00:25.942Z,57.14
2018-08-25T18:02:56.821Z,57.64
2018-08-25T18:05:27.618Z,57.21
2018-08-25T18:07:58.495Z,57.71
2018-08-25T18:10:29.297Z,58.16
2018-08-25T18:13:00.145Z,57.95
2018-08-25T18:15:31.555Z,57.87
2018-08-25T18:18:02.442Z,59.00
2018-08-25T18:20:33.277Z,59.92
2018-08-25T18:23:04.118Z,60.76
2018-08-25T18:25:35.886Z,62.16
2018-08-25T18:28:06.725Z,61.97
2018-08-25T18:30:37.661Z,62.02
2018-08-25T18:33:08.744Z,60.83
2018-08-25T18:35:39.517Z,62.24
2018-08-25T18:38:10.368Z,62.33
2018-08-25T18:40:41.184Z,62.48
2018-08-25T18:43:12.028Z,62.72
2018-08-25T18:45:42.835Z,62.23
2018-08-25T18:48:14.006Z,63.44
2018-08-25T18:50:45.150Z,64.66
2018-08-25T18:53:16.061Z,65.04
2018-08-25T18:55:47.967Z,66.12
2018-08-25T18:58:18.998Z,66.84
2018-08-25T19:00:50.369Z,64.48
2018-08-25T19:03:21.525Z,64.90
2018-08-25T19:05:55.808Z,64.81
2018-08-25T19:08:26.696Z,65.36
2018-08-25T19:10:57.751Z,65.85
2018-08-25T19:13:28.600Z,65.77
2018-08-25T19:15:59.545Z,66.50
2018-08-25T19:18:33.598Z,66.85
2018-08-25T19:21:04.739Z,68.48
2018-08-25T19:23:35.757Z,69.31
2018-08-25T19:26:06.804Z,69.17
2018-08-25T19:28:37.648Z,68.93
2018-08-25T19:31:08.445Z,68.83
2018-08-25T19:33:39.346Z,68.86
2018-08-25T19:36:10.172Z,68.80
2018-08-25T19:38:41.051Z,69.60
2018-08-25T19:41:12.428Z,70.10
2018-08-25T19:43:43.446Z,70.24
2018-08-25T19:46:14.345Z,70.66
2018-08-25T19:48:45.308Z,72.16
2018-08-25T19:51:16.089Z,71.97
2018-08-25T19:53:46.939Z,71.76
2018-08-25T19:56:18.018Z,72.29
2018-08-25T19:58:53.803Z,71.27
2018-08-25T20:01:29.878Z,71.85
2018-08-25T20:04:05.800Z,71.46
2018-08-25T20:06:41.693Z,70.71
2018-08-25T20:09:17.670Z,71.39
2018-08-25T20:11:53.684Z,70.90
2018-08-25T20:14:29.835Z,71.24
2018-08-25T20:17:05.674Z,70.96
2018-08-25T20:19:41.478Z,71.38
2018-08-25T20:22:17.253Z,72.38
2018-08-25T20:24:53.140Z,71.08
2018-08-25T20:27:28.972Z,71.46
2018-08-25T20:30:05.474Z,72.79
2018-08-25T20:32:41.401Z,73.10
2018-08-25T20:35:17.341Z,74.48
2018-08-25T20:37:53.148Z,75.75
2018-08-25T20:40:29.503Z,75.47
2018-08-25T20:43:05.446Z,77.00
2018-08-25T20:45:41.307Z,77.96
2018-08-25T20:48:17.163Z,77.07
2018-08-25T20:50:53.106Z,76.44
2018-08-25T20:53:28.866Z,75.91
2018-08-25T20:56:04.844Z,77.22
2018-08-25T20:58:40.656Z,79.07
2018-08-25T21:01:16.547Z,75.48
2018-08-25T21:03:53.705Z,77.34
2018-08-25T21:07:54.702Z,77.36
2018-08-25T21:10:31.781Z,78.03
2018-08-25T21:13:09.519Z,76.12
2018-08-25T21:15:46.024Z,76.64
2018-08-25T21:18:22.012Z,76.32
2018-08-25T21:20:58.058Z,74.79
2018-08-25T21:23:33.950Z,75.77
2018-08-25T21:26:09.696Z,73.85
2018-08-25T21:28:45.520Z,75.62
2018-08-25T21:31:21.281Z,74.64
2018-08-25T21:33:57.104Z,74.88
2018-08-25T21:36:33.034Z,74.82
2018-08-25T21:39:10.578Z,74.24
2018-08-25T21:41:47.613Z,74.41
2018-08-25T21:44:23.367Z,76.47
2018-08-25T21:46:59.167Z,77.25
2018-08-25T21:49:35.193Z,78.62
2018-08-25T21:52:10.954Z,80.00
2018-08-25T21:54:46.916Z,80.69
2018-08-25T21:57:22.642Z,80.88
2018-08-25T21:59:58.577Z,80.90
2018-08-25T22:02:34.422Z,80.24
2018-08-25T22:05:10.198Z,80.54
2018-08-25T22:07:46.025Z,79.24
2018-08-25T22:10:21.850Z,79.08
2018-08-25T22:12:57.743Z,78.82
2018-08-25T22:15:33.692Z,79.37
2018-08-25T22:18:09.446Z,78.91
2018-08-25T22:20:45.260Z,79.05
2018-08-25T22:23:20.969Z,79.06
2018-08-25T22:25:56.783Z,78.85
2018-08-25T22:28:32.515Z,78.45
2018-08-25T22:31:08.556Z,77.96
2018-08-25T22:33:44.458Z,79.27
2018-08-25T22:36:20.217Z,78.99
2018-08-25T22:38:55.940Z,80.12
2018-08-25T22:41:31.775Z,80.92
2018-08-25T22:44:08.257Z,80.95
2018-08-25T22:46:43.997Z,84.98
2018-08-25T22:49:19.720Z,86.02
2018-08-25T22:51:55.510Z,85.67
2018-08-25T22:54:31.471Z,85.61
2018-08-25T22:57:07.328Z,85.18
2018-08-25T22:59:43.045Z,85.19
2018-08-25T23:02:18.886Z,83.83
2018-08-25T23:04:54.632Z,83.54
2018-08-25T23:07:30.449Z,83.35
2018-08-25T23:10:06.733Z,82.37
2018-08-25T23:12:42.601Z,83.86
2018-08-25T23:15:18.574Z,85.98
2018-08-25T23:17:54.401Z,85.80
2018-08-25T23:20:30.110Z,86.96
2018-08-25T23:23:06.086Z,86.30
2018-08-25T23:25:41.820Z,87.17
2018-08-25T23:28:17.460Z,87.01
2018-08-25T23:30:53.244Z,86.33
2018-08-25T23:33:29.026Z,85.91
2018-08-25T23:36:04.828Z,86.46
2018-08-25T23:38:40.688Z,86.30
2018-08-25T23:41:16.449Z,86.33
2018-08-25T23:43:52.303Z,85.49
2018-08-25T23:46:28.137Z,85.62
2018-08-25T23:49:03.997Z,85.15
2018-08-25T23:51:39.865Z,85.23
2018-08-25T23:54:15.735Z,85.64
2018-08-25T23:56:51.519Z,85.53
2018-08-25T23:59:27.736Z,85.64
